Plentywood (PWD)
Plentywood, MT
Field Elevation: 2251
Lat: 48°47.32N  Long: 104°31.39W
CTAF/Unicom Freq: 122.8000
   
     For Weather-by-Phone, call 406-765-2149
Weather Advisories
2017-04-27   22:25 Z
Altimeter 29.73" Hg
Wind 090° @ 10 KT
Gusts 15 KT
Visibility 10 SM
Temperature 11° C (52° F)
Dewpoint -12° C (10° F)
Relative Humidity 20%
Density Altitude --
Condensation Altitude 13,400 feet
Wind and Runways
Indicated Runway = 08
Headwind = 10 kt
Crosswind = 2 kt
History
 
 
 
More Info
NOAA Forecast
 
Airport IQ 5010
(S59) Libby
(6S5) Ravalli County
 
about DigiWx
 
FAA Disclaimer: The data displayed is for advisory purposes only and is not to be used for flight planning or operations. For official data, please call 406-765-2149 to hear the current automated AWOS voice message.
  METAR PWD 272225Z AUTO 09010G15KT VIS 10 SM 11/M12 A2973